createdAt,value
2019-04-05T00:00:15.217Z,3.987
2019-04-05T00:03:15.607Z,2.487
2019-04-05T00:06:15.046Z,2.763
2019-04-05T00:09:15.334Z,2.700
2019-04-05T00:12:15.792Z,1.937
2019-04-05T00:15:16.071Z,3.100
2019-04-05T00:18:14.995Z,3.125
2019-04-05T00:21:15.021Z,4.950
2019-04-05T00:24:15.172Z,3.362
2019-04-05T00:27:15.708Z,2.388
2019-04-05T00:30:15.414Z,3.300
2019-04-05T00:33:15.972Z,2.987
2019-04-05T00:36:15.832Z,3.837
2019-04-05T00:39:15.396Z,4.525
2019-04-05T00:42:15.804Z,2.875
2019-04-05T00:45:27.522Z,4.425
2019-04-05T00:48:15.879Z,4.663
2019-04-05T00:51:15.803Z,4.062
2019-04-05T00:54:15.303Z,4.825
2019-04-05T00:57:15.096Z,2.825
2019-04-05T01:00:15.430Z,1.988
2019-04-05T01:03:15.653Z,4.275
2019-04-05T01:06:15.096Z,6.175
2019-04-05T01:09:15.740Z,4.412
2019-04-05T01:12:15.421Z,3.650
2019-04-05T01:15:15.730Z,4.263
2019-04-05T01:18:15.681Z,3.100
2019-04-05T01:21:15.447Z,2.900
2019-04-05T01:24:15.405Z,5.737
2019-04-05T01:27:15.088Z,6.438
2019-04-05T01:30:15.660Z,4.912
2019-04-05T01:33:15.223Z,4.062
2019-04-05T01:36:15.378Z,5.737
2019-04-05T01:39:15.491Z,2.588
2019-04-05T01:42:15.008Z,2.775
2019-04-05T01:45:15.736Z,3.100
2019-04-05T01:48:15.694Z,3.675
2019-04-05T01:54:15.741Z,7.650
2019-04-05T01:57:15.193Z,3.775
2019-04-05T02:00:15.366Z,2.213
2019-04-05T02:03:15.015Z,2.950
2019-04-05T02:06:14.942Z,2.600
2019-04-05T02:09:15.543Z,3.812
2019-04-05T02:12:15.115Z,4.050
2019-04-05T02:15:15.239Z,2.900
2019-04-05T02:18:15.664Z,2.425
2019-04-05T02:24:15.661Z,7.638
2019-04-05T02:27:15.519Z,4.900
2019-04-05T02:30:15.079Z,2.950
2019-04-05T02:33:15.531Z,4.075
2019-04-05T02:36:15.267Z,4.050
2019-04-05T02:39:15.623Z,4.825
2019-04-05T02:42:15.608Z,6.662
2019-04-05T02:45:15.197Z,18.512
2019-04-05T02:48:15.286Z,3.362
2019-04-05T02:54:15.086Z,3.475
2019-04-05T02:57:14.960Z,3.550
2019-04-05T03:00:15.687Z,5.237
2019-04-05T03:03:15.127Z,4.537
2019-04-05T03:06:15.269Z,6.463
2019-04-05T03:09:15.231Z,5.213
2019-04-05T03:12:18.943Z,6.188
2019-04-05T03:15:15.222Z,3.450
2019-04-05T03:18:15.294Z,5.775
2019-04-05T03:24:15.388Z,6.025
2019-04-05T03:27:15.829Z,6.787
2019-04-05T03:30:15.778Z,6.325
2019-04-05T03:33:15.473Z,6.663
2019-04-05T03:36:15.553Z,6.275
2019-04-05T03:39:15.885Z,2.550
2019-04-05T03:42:15.289Z,4.487
2019-04-05T03:45:15.773Z,4.250
2019-04-05T03:48:15.073Z,5.713
2019-04-05T03:54:15.427Z,5.838
2019-04-05T03:57:15.051Z,2.975
2019-04-05T04:00:14.990Z,4.475
2019-04-05T04:03:15.133Z,2.612
2019-04-05T04:06:15.369Z,3.800
2019-04-05T04:09:15.085Z,4.463
2019-04-05T04:12:15.251Z,6.450
2019-04-05T04:15:15.183Z,5.412
2019-04-05T04:18:15.588Z,3.612
2019-04-05T04:21:15.409Z,4.850
2019-04-05T04:24:15.549Z,2.575
2019-04-05T04:27:15.040Z,4.850
2019-04-05T04:30:15.947Z,5.450
2019-04-05T04:33:15.999Z,4.237
2019-04-05T04:36:15.582Z,4.725
2019-04-05T04:39:15.876Z,3.500
2019-04-05T04:42:15.052Z,3.475
2019-04-05T04:45:15.394Z,8.238
2019-04-05T04:48:15.298Z,3.613
2019-04-05T04:51:15.837Z,3.862
2019-04-05T04:54:15.035Z,3.337
2019-04-05T04:57:15.736Z,8.838
2019-04-05T05:00:15.755Z,4.800
2019-04-05T05:03:15.178Z,2.775
2019-04-05T05:06:15.519Z,3.812
2019-04-05T05:09:15.592Z,6.487
2019-04-05T05:12:15.026Z,3.862
2019-04-05T05:15:15.701Z,7.213
2019-04-05T05:18:15.790Z,7.387
2019-04-05T05:21:15.334Z,6.112
2019-04-05T05:24:15.688Z,16.788
2019-04-05T05:27:15.451Z,4.938
2019-04-05T05:30:15.456Z,3.125
2019-04-05T05:33:15.410Z,2.812
2019-04-05T05:36:16.014Z,5.713
2019-04-05T05:39:15.695Z,4.037
2019-04-05T05:42:15.619Z,4.688
2019-04-05T05:45:15.703Z,4.300
2019-04-05T05:48:15.765Z,4.963
2019-04-05T05:51:15.789Z,4.213
2019-04-05T05:54:15.757Z,3.688
2019-04-05T05:57:15.860Z,2.350
2019-04-05T06:00:15.071Z,4.800
2019-04-05T06:03:16.741Z,4.775
2019-04-05T06:06:15.942Z,2.638
2019-04-05T06:09:14.961Z,5.013
2019-04-05T06:12:15.148Z,6.275
2019-04-05T06:15:15.630Z,3.138
2019-04-05T06:18:15.616Z,3.500
2019-04-05T06:21:15.530Z,2.900
2019-04-05T06:24:15.494Z,3.263
2019-04-05T06:27:15.073Z,7.688
2019-04-05T06:30:15.280Z,2.537
2019-04-05T06:33:15.830Z,5.475
2019-04-05T06:36:15.300Z,3.075
2019-04-05T06:39:15.676Z,3.350
2019-04-05T06:42:15.575Z,5.912
2019-04-05T06:45:15.309Z,4.987
2019-04-05T06:48:19.464Z,2.300
2019-04-05T06:51:15.582Z,4.225
2019-04-05T06:54:15.476Z,2.662
2019-04-05T06:57:15.350Z,3.913
2019-04-05T07:00:15.751Z,3.613
2019-04-05T07:03:15.707Z,8.162
2019-04-05T07:06:15.568Z,2.438
2019-04-05T07:09:15.488Z,4.688
2019-04-05T07:12:15.632Z,4.637
2019-04-05T07:15:15.508Z,6.638
2019-04-05T07:18:15.720Z,3.025
2019-04-05T07:21:17.302Z,4.237
2019-04-05T07:24:15.465Z,3.413
2019-04-05T07:27:15.292Z,7.713
2019-04-05T07:30:15.881Z,3.863
2019-04-05T07:33:15.073Z,3.688
2019-04-05T07:36:15.263Z,4.775
2019-04-05T07:39:15.768Z,4.862
2019-04-05T07:42:15.781Z,2.050
2019-04-05T07:45:15.711Z,4.775
2019-04-05T07:48:15.406Z,3.600
2019-04-05T07:51:15.090Z,5.862
2019-04-05T07:54:15.306Z,4.050
2019-04-05T07:57:15.748Z,4.750
2019-04-05T08:00:15.932Z,3.938
2019-04-05T08:03:15.996Z,9.913
2019-04-05T08:06:15.847Z,8.312
2019-04-05T08:09:15.225Z,3.513
2019-04-05T08:12:15.245Z,6.225
2019-04-05T08:15:15.843Z,5.925
2019-04-05T08:18:15.242Z,4.088
2019-04-05T08:21:15.516Z,5.237
2019-04-05T08:24:15.560Z,4.950
2019-04-05T08:27:15.044Z,4.325
2019-04-05T08:30:15.101Z,3.350
2019-04-05T08:33:15.202Z,4.900
2019-04-05T08:36:15.283Z,6.250
2019-04-05T08:39:15.192Z,4.787
2019-04-05T08:42:15.330Z,3.788
2019-04-05T08:45:15.614Z,3.362
2019-04-05T08:48:15.767Z,3.562
2019-04-05T08:51:15.714Z,4.225
2019-04-05T08:54:15.673Z,3.463
2019-04-05T08:57:15.926Z,3.137
2019-04-05T09:00:15.871Z,3.038
2019-04-05T09:03:15.691Z,6.825
2019-04-05T09:06:15.504Z,3.750
2019-04-05T09:09:15.741Z,3.562
2019-04-05T09:12:15.630Z,5.200
2019-04-05T09:15:15.836Z,9.438
2019-04-05T09:18:15.660Z,5.800
2019-04-05T09:21:17.763Z,4.600
2019-04-05T09:24:15.729Z,3.087
2019-04-05T09:27:15.736Z,7.238
2019-04-05T09:30:15.386Z,3.775
2019-04-05T09:33:15.673Z,4.438
2019-04-05T09:36:15.779Z,6.762
2019-04-05T09:39:16.014Z,3.225
2019-04-05T09:42:15.880Z,15.750
2019-04-05T09:45:15.842Z,8.075
2019-04-05T09:48:16.044Z,3.150
2019-04-05T09:51:16.923Z,6.700
2019-04-05T09:54:15.779Z,5.262
2019-04-05T09:57:15.607Z,10.875
2019-04-05T10:00:15.728Z,6.725
2019-04-05T10:03:15.710Z,3.225
2019-04-05T10:06:15.440Z,6.238
2019-04-05T10:09:15.937Z,3.112
2019-04-05T10:12:15.158Z,4.812
2019-04-05T10:15:15.429Z,8.425
2019-04-05T10:18:15.851Z,2.562
2019-04-05T10:21:15.888Z,9.912
2019-04-05T10:24:15.352Z,8.750
2019-04-05T10:27:15.589Z,6.450
2019-04-05T10:30:15.274Z,4.987
2019-04-05T10:33:15.137Z,5.838
2019-04-05T10:36:15.479Z,3.987
2019-04-05T10:39:15.990Z,9.087
2019-04-05T10:42:15.308Z,5.662
2019-04-05T10:45:15.566Z,6.562
2019-04-05T10:48:15.721Z,8.575
2019-04-05T10:51:15.989Z,3.475
2019-04-05T10:54:15.079Z,4.600
2019-04-05T10:57:15.985Z,6.287
2019-04-05T11:00:16.010Z,9.412
2019-04-05T11:03:15.863Z,6.650
2019-04-05T11:06:15.240Z,11.138
2019-04-05T11:09:16.024Z,13.450
2019-04-05T11:12:15.516Z,9.100
2019-04-05T11:15:15.399Z,8.600
2019-04-05T11:18:15.820Z,5.237
2019-04-05T11:21:16.276Z,6.763
2019-04-05T11:24:15.835Z,4.863
2019-04-05T11:27:15.105Z,4.525
2019-04-05T11:30:15.870Z,4.263
2019-04-05T11:33:15.521Z,20.675
2019-04-05T11:36:15.158Z,6.975
2019-04-05T11:39:15.599Z,7.838
2019-04-05T11:42:15.404Z,8.888
2019-04-05T11:45:15.924Z,8.350
2019-04-05T11:48:15.764Z,8.537
2019-04-05T11:51:15.661Z,12.675
2019-04-05T11:54:18.318Z,21.763
2019-04-05T11:57:15.996Z,11.275
2019-04-05T12:00:15.891Z,7.725
2019-04-05T12:03:15.589Z,9.212
2019-04-05T12:06:15.818Z,7.588
2019-04-05T12:09:15.413Z,10.438
2019-04-05T12:12:15.541Z,10.713
2019-04-05T12:15:15.735Z,11.088
2019-04-05T12:18:19.136Z,6.925
2019-04-05T12:21:15.048Z,7.162
2019-04-05T12:24:15.612Z,3.600
2019-04-05T12:27:15.525Z,6.438
2019-04-05T12:30:15.625Z,3.112
2019-04-05T12:33:19.324Z,17.913
2019-04-05T12:36:15.880Z,4.700
2019-04-05T12:39:15.550Z,12.012
2019-04-05T12:42:15.852Z,8.875
2019-04-05T12:45:15.573Z,6.400
2019-04-05T12:48:16.535Z,7.775
2019-04-05T12:51:16.296Z,4.650
2019-04-05T12:54:14.975Z,5.175
2019-04-05T12:57:15.555Z,19.062
2019-04-05T13:00:15.741Z,6.925
2019-04-05T13:03:15.342Z,5.138
2019-04-05T13:06:15.138Z,11.062
2019-04-05T13:09:15.803Z,10.900
2019-04-05T13:12:15.706Z,5.700
2019-04-05T13:15:17.146Z,6.350
2019-04-05T13:18:15.812Z,5.412
2019-04-05T13:21:15.683Z,4.800
2019-04-05T13:24:15.685Z,11.725
2019-04-05T13:27:15.233Z,17.625
2019-04-05T13:30:18.310Z,7.875
2019-04-05T13:33:15.211Z,10.375
2019-04-05T13:36:15.703Z,6.775
2019-04-05T13:39:15.276Z,27.850
2019-04-05T13:42:15.839Z,7.562
2019-04-05T13:45:15.932Z,9.200
2019-04-05T13:48:15.227Z,8.538
2019-04-05T13:51:27.311Z,12.500
2019-04-05T13:54:15.463Z,6.900
2019-04-05T13:57:15.744Z,7.725
2019-04-05T14:00:18.213Z,4.925
2019-04-05T14:03:15.140Z,5.525
2019-04-05T14:06:15.904Z,8.275
2019-04-05T14:09:15.945Z,7.575
2019-04-05T14:12:15.341Z,10.012
2019-04-05T14:15:16.025Z,8.612
2019-04-05T14:18:15.533Z,9.750
2019-04-05T14:21:15.811Z,14.588
2019-04-05T14:24:15.161Z,11.287
2019-04-05T14:27:15.885Z,11.000
2019-04-05T14:30:15.822Z,6.812
2019-04-05T14:33:15.531Z,10.150
2019-04-05T14:36:15.621Z,7.462
2019-04-05T14:39:15.683Z,8.537
2019-04-05T14:42:15.881Z,13.125
2019-04-05T14:45:15.468Z,14.375
2019-04-05T14:48:15.489Z,7.162
2019-04-05T14:51:15.510Z,12.625
2019-04-05T14:54:15.059Z,5.812
2019-04-05T14:57:15.457Z,15.287
2019-04-05T15:00:15.835Z,34.012
2019-04-05T15:03:15.724Z,7.825
2019-04-05T15:06:15.501Z,7.463
2019-04-05T15:09:15.717Z,9.537
2019-04-05T15:12:14.876Z,8.613
2019-04-05T15:15:15.119Z,12.825
2019-04-05T15:18:15.909Z,9.938
2019-04-05T15:21:15.671Z,9.475
2019-04-05T15:24:16.749Z,18.050
2019-04-05T15:27:15.197Z,24.962
2019-04-05T15:30:15.873Z,14.050
2019-04-05T15:33:15.713Z,11.450
2019-04-05T15:36:15.726Z,10.412
2019-04-05T15:39:15.879Z,17.125
2019-04-05T15:42:15.001Z,11.200
2019-04-05T15:45:16.604Z,20.638
2019-04-05T15:48:15.772Z,11.175
2019-04-05T15:51:15.395Z,10.800
2019-04-05T15:54:14.948Z,15.037
2019-04-05T15:57:15.089Z,13.850
2019-04-05T16:00:15.495Z,10.188
2019-04-05T16:03:15.763Z,9.650
2019-04-05T16:06:15.267Z,18.137
2019-04-05T16:09:15.006Z,10.725
2019-04-05T16:12:15.950Z,8.650
2019-04-05T16:15:15.484Z,11.538
2019-04-05T16:18:15.550Z,11.913
2019-04-05T16:21:15.733Z,12.738
2019-04-05T16:24:15.092Z,16.550
2019-04-05T16:27:15.730Z,13.412
2019-04-05T16:30:15.803Z,11.675
2019-04-05T16:33:15.426Z,13.425
2019-04-05T16:36:15.678Z,9.062
2019-04-05T16:39:15.698Z,17.438
2019-04-05T16:42:15.693Z,12.338
2019-04-05T16:45:15.702Z,10.387
2019-04-05T16:48:15.753Z,29.950
2019-04-05T16:51:16.008Z,13.125
2019-04-05T16:54:15.812Z,6.637
2019-04-05T16:57:15.035Z,12.975
2019-04-05T17:00:15.537Z,12.288
2019-04-05T17:03:15.409Z,7.662
2019-04-05T17:06:14.944Z,10.338
2019-04-05T17:09:15.747Z,8.400
2019-04-05T17:12:15.111Z,10.462
2019-04-05T17:15:15.863Z,7.950
2019-04-05T17:18:15.569Z,11.312
2019-04-05T17:21:15.625Z,11.688
2019-04-05T17:24:15.561Z,16.150
2019-04-05T17:27:15.376Z,13.500
2019-04-05T17:30:15.112Z,12.125
2019-04-05T17:33:15.826Z,18.038
2019-04-05T17:36:15.894Z,14.525
2019-04-05T17:39:15.424Z,12.875
2019-04-05T17:42:15.181Z,17.175
2019-04-05T17:45:15.022Z,14.075
2019-04-05T17:48:15.730Z,8.312
2019-04-05T17:51:15.731Z,13.688
2019-04-05T17:54:14.994Z,10.562
2019-04-05T17:57:15.837Z,10.038
2019-04-05T18:00:15.142Z,16.038
2019-04-05T18:03:15.034Z,6.363
2019-04-05T18:06:15.791Z,12.375
2019-04-05T18:09:15.954Z,13.600
2019-04-05T18:12:15.352Z,8.613
2019-04-05T18:15:14.970Z,11.975
2019-04-05T18:18:15.896Z,22.163
2019-04-05T18:21:15.681Z,9.400
2019-04-05T18:24:15.885Z,8.137
2019-04-05T18:27:15.283Z,8.912
2019-04-05T18:30:15.785Z,4.737
2019-04-05T18:33:15.913Z,5.000
2019-04-05T18:36:15.075Z,13.375
2019-04-05T18:39:15.771Z,7.188
2019-04-05T18:42:15.102Z,8.900
2019-04-05T18:45:15.900Z,13.600
2019-04-05T18:48:14.973Z,7.850
2019-04-05T18:51:15.755Z,7.062
2019-04-05T18:54:15.875Z,10.675
2019-04-05T18:57:15.132Z,9.762
2019-04-05T19:00:15.787Z,9.562
2019-04-05T19:03:14.972Z,9.913
2019-04-05T19:06:15.681Z,25.013
2019-04-05T19:09:15.835Z,13.325
2019-04-05T19:12:15.905Z,13.800
2019-04-05T19:15:15.262Z,9.713
2019-04-05T19:18:15.122Z,13.438
2019-04-05T19:21:15.203Z,21.137
2019-04-05T19:24:15.825Z,13.750
2019-04-05T19:27:15.295Z,16.413
2019-04-05T19:48:30.635Z,29.675
2019-04-05T19:51:15.829Z,19.288
2019-04-05T19:54:15.133Z,28.850
2019-04-05T19:57:15.794Z,9.737
2019-04-05T20:00:15.973Z,17.438
2019-04-05T20:03:15.509Z,22.962
2019-04-05T20:06:15.243Z,22.487
2019-04-05T20:09:16.007Z,12.688
2019-04-05T20:12:15.251Z,18.038
2019-04-05T20:15:15.855Z,9.812
2019-04-05T20:18:15.959Z,20.750
2019-04-05T20:21:15.308Z,13.225
2019-04-05T20:24:14.952Z,13.388
2019-04-05T20:27:15.751Z,19.325
2019-04-05T20:30:15.652Z,21.500
2019-04-05T20:33:15.777Z,18.888
2019-04-05T20:36:15.815Z,12.375
2019-04-05T20:39:15.748Z,15.350
2019-04-05T20:42:15.645Z,18.612
2019-04-05T20:45:15.150Z,15.525
2019-04-05T20:48:15.773Z,13.950
2019-04-05T20:51:15.780Z,13.988
2019-04-05T20:54:24.203Z,26.700
2019-04-05T20:57:15.716Z,21.513
2019-04-05T21:00:15.587Z,21.325
2019-04-05T21:03:15.146Z,19.225
2019-04-05T21:06:17.233Z,25.225
2019-04-05T21:09:15.265Z,15.650
2019-04-05T21:12:15.024Z,17.375
2019-04-05T21:15:20.825Z,25.725
2019-04-05T21:18:15.696Z,12.462
2019-04-05T21:21:15.223Z,16.637
2019-04-05T21:24:15.323Z,14.963
2019-04-05T21:27:14.972Z,10.375
2019-04-05T21:30:15.704Z,11.938
2019-04-05T21:33:15.882Z,30.400
2019-04-05T21:36:15.785Z,25.300
2019-04-05T21:39:15.512Z,30.500
2019-04-05T21:42:14.916Z,17.300
2019-04-05T21:45:15.705Z,9.550
2019-04-05T21:48:15.281Z,8.850
2019-04-05T21:51:15.449Z,19.700
2019-04-05T21:54:15.127Z,17.750
2019-04-05T21:57:15.795Z,16.450
2019-04-05T22:00:15.493Z,17.275
2019-04-05T22:03:15.543Z,17.788
2019-04-05T22:06:15.253Z,9.137
2019-04-05T22:09:15.928Z,4.975
2019-04-05T22:12:14.909Z,8.250
2019-04-05T22:15:15.798Z,19.212
2019-04-05T22:18:15.721Z,19.225
2019-04-05T22:21:15.676Z,24.163
2019-04-05T22:24:15.371Z,20.100
2019-04-05T22:27:16.047Z,12.038
2019-04-05T22:30:15.240Z,23.012
2019-04-05T22:33:14.976Z,26.562
2019-04-05T22:36:15.822Z,21.500
2019-04-05T22:39:15.599Z,17.763
2019-04-05T22:42:15.122Z,16.525
2019-04-05T22:45:15.031Z,14.887
2019-04-05T22:48:15.743Z,18.150
2019-04-05T22:51:15.380Z,17.012
2019-04-05T22:54:15.908Z,17.113
2019-04-05T22:57:15.816Z,15.400
2019-04-05T23:00:15.482Z,15.588
2019-04-05T23:03:14.988Z,21.950
2019-04-05T23:06:15.638Z,26.212
2019-04-05T23:09:15.337Z,14.962
2019-04-05T23:12:15.878Z,12.900
2019-04-05T23:15:15.699Z,19.538
2019-04-05T23:18:15.079Z,18.488
2019-04-05T23:21:15.805Z,22.375
2019-04-05T23:24:15.743Z,18.962
2019-04-05T23:27:15.735Z,17.250
2019-04-05T23:30:15.600Z,17.562
2019-04-05T23:33:15.511Z,25.212
2019-04-05T23:36:15.091Z,15.612
2019-04-05T23:39:15.637Z,13.287
2019-04-05T23:42:15.297Z,15.912
2019-04-05T23:45:15.023Z,18.812
2019-04-05T23:48:15.644Z,18.688
2019-04-05T23:51:15.318Z,25.513
2019-04-05T23:54:15.863Z,25.487
2019-04-05T23:57:15.176Z,19.712
